sensor_id;sensor_type;location;lat;lon;timestamp;pressure;altitude;pressure_sealevel;temperature;humidity
61484;BME280;47349;55.640;37.692;2023-05-12T00:06:19;99783.19;;;12.67;59.56
61484;BME280;47349;55.640;37.692;2023-05-12T00:08:46;99811.78;;;12.82;59.52
61484;BME280;47349;55.640;37.692;2023-05-12T00:15:44;99815.38;;;12.75;59.44
61484;BME280;47349;55.640;37.692;2023-05-12T00:18:12;99790.56;;;12.58;59.57
61484;BME280;47349;55.640;37.692;2023-05-12T00:25:09;99801.19;;;12.66;58.96
61484;BME280;47349;55.640;37.692;2023-05-12T00:32:08;99800.75;;;12.63;58.22
61484;BME280;47349;55.640;37.692;2023-05-12T00:34:35;99798.78;;;12.71;58.65
61484;BME280;47349;55.640;37.692;2023-05-12T00:37:02;99817.03;;;12.76;58.46
61484;BME280;47349;55.640;37.692;2023-05-12T00:44:02;99801.59;;;12.63;58.51
61484;BME280;47349;55.640;37.692;2023-05-12T00:46:29;99808.63;;;12.64;58.74
61484;BME280;47349;55.640;37.692;2023-05-12T00:51:03;99819.66;;;12.69;58.55
61484;BME280;47349;55.640;37.692;2023-05-12T00:58:01;99786.66;;;12.46;59.11
61484;BME280;47349;55.640;37.692;2023-05-12T01:05:00;99821.31;;;12.55;59.57
61484;BME280;47349;55.640;37.692;2023-05-12T01:12:01;99806.50;;;12.45;59.21
61484;BME280;47349;55.640;37.692;2023-05-12T01:14:29;99793.13;;;12.37;59.30
61484;BME280;47349;55.640;37.692;2023-05-12T01:23:43;99816.59;;;12.43;59.03
61484;BME280;47349;55.640;37.692;2023-05-12T01:26:12;99786.16;;;12.27;58.89
61484;BME280;47349;55.640;37.692;2023-05-12T01:30:40;99819.94;;;12.45;59.31
61484;BME280;47349;55.640;37.692;2023-05-12T01:33:10;99803.78;;;12.30;59.04
61484;BME280;47349;55.640;37.692;2023-05-12T01:35:38;99806.22;;;12.40;58.77
61484;BME280;47349;55.640;37.692;2023-05-12T01:40:05;99820.56;;;12.47;58.65
61484;BME280;47349;55.640;37.692;2023-05-12T01:56:37;99785.72;;;12.39;57.62
61484;BME280;47349;55.640;37.692;2023-05-12T01:59:04;99813.44;;;12.54;57.64
61484;BME280;47349;55.640;37.692;2023-05-12T02:06:05;99786.44;;;12.47;57.49
61484;BME280;47349;55.640;37.692;2023-05-12T02:17:41;99787.88;;;12.58;57.50
61484;BME280;47349;55.640;37.692;2023-05-12T02:20:09;99808.53;;;12.72;57.15
61484;BME280;47349;55.640;37.692;2023-05-12T02:24:37;99790.09;;;12.54;56.68
61484;BME280;47349;55.640;37.692;2023-05-12T02:27:05;99814.19;;;12.77;56.46
61484;BME280;47349;55.640;37.692;2023-05-12T02:29:32;99811.66;;;12.76;56.30
61484;BME280;47349;55.640;37.692;2023-05-12T02:34:04;99802.13;;;12.73;56.18
61484;BME280;47349;55.640;37.692;2023-05-12T02:36:32;99811.38;;;12.85;56.03
61484;BME280;47349;55.640;37.692;2023-05-12T02:43:30;99813.44;;;12.83;56.01
61484;BME280;47349;55.640;37.692;2023-05-12T02:45:57;99813.72;;;12.89;56.01
61484;BME280;47349;55.640;37.692;2023-05-12T02:55:17;99805.91;;;12.94;55.85
61484;BME280;47349;55.640;37.692;2023-05-12T03:02:18;99806.72;;;12.94;57.44
61484;BME280;47349;55.640;37.692;2023-05-12T03:04:46;99816.09;;;12.98;56.50
61484;BME280;47349;55.640;37.692;2023-05-12T03:07:13;99792.38;;;12.87;56.05
61484;BME280;47349;55.640;37.692;2023-05-12T03:16:24;99804.56;;;13.04;58.34
61484;BME280;47349;55.640;37.692;2023-05-12T03:23:40;99826.47;;;13.31;58.32
61484;BME280;47349;55.640;37.692;2023-05-12T03:28:08;99819.75;;;13.42;56.41
61484;BME280;47349;55.640;37.692;2023-05-12T03:30:35;99807.06;;;13.35;57.20
61484;BME280;47349;55.640;37.692;2023-05-12T03:33:02;99793.34;;;13.30;57.01
61484;BME280;47349;55.640;37.692;2023-05-12T03:42:14;99796.81;;;13.46;54.76
61484;BME280;47349;55.640;37.692;2023-05-12T03:44:42;99805.50;;;13.48;55.61
61484;BME280;47349;55.640;37.692;2023-05-12T03:51:40;99794.75;;;13.48;53.82
61484;BME280;47349;55.640;37.692;2023-05-12T03:54:07;99820.91;;;13.75;53.38
61484;BME280;47349;55.640;37.692;2023-05-12T04:01:04;99797.06;;;13.51;52.43
61484;BME280;47349;55.640;37.692;2023-05-12T04:08:03;99811.91;;;13.68;53.96
61484;BME280;47349;55.640;37.692;2023-05-12T04:15:03;99815.31;;;13.77;53.36
61484;BME280;47349;55.640;37.692;2023-05-12T04:22:04;99801.28;;;13.81;52.59
61484;BME280;47349;55.640;37.692;2023-05-12T04:24:31;99824.41;;;13.97;52.21
61484;BME280;47349;55.640;37.692;2023-05-12T04:28:56;99821.22;;;13.87;52.35
61484;BME280;47349;55.640;37.692;2023-05-12T04:33:27;99807.66;;;14.02;51.99
61484;BME280;47349;55.640;37.692;2023-05-12T04:35:56;99811.13;;;14.17;51.86
61484;BME280;47349;55.640;37.692;2023-05-12T04:45:15;99790.69;;;13.80;51.60
61484;BME280;47349;55.640;37.692;2023-05-12T04:47:42;99788.63;;;14.03;51.52
61484;BME280;47349;55.640;37.692;2023-05-12T04:50:10;99803.78;;;14.39;50.67
61484;BME280;47349;55.640;37.692;2023-05-12T04:52:38;99798.25;;;14.47;50.60
61484;BME280;47349;55.640;37.692;2023-05-12T04:55:06;99804.81;;;14.66;50.43
61484;BME280;47349;55.640;37.692;2023-05-12T04:57:34;99795.91;;;14.65;51.24
61484;BME280;47349;55.640;37.692;2023-05-12T05:00:03;99772.69;;;14.71;50.43
61484;BME280;47349;55.640;37.692;2023-05-12T05:02:32;99769.31;;;14.62;49.80
61484;BME280;47349;55.640;37.692;2023-05-12T05:05:17;99785.38;;;14.84;49.48
61484;BME280;47349;55.640;37.692;2023-05-12T05:07:45;99773.16;;;14.88;49.46
61484;BME280;47349;55.640;37.692;2023-05-12T05:10:14;99786.25;;;14.84;50.30
61484;BME280;47349;55.640;37.692;2023-05-12T05:12:43;99792.19;;;14.73;49.83
61484;BME280;47349;55.640;37.692;2023-05-12T05:15:11;99804.03;;;14.72;49.93
61484;BME280;47349;55.640;37.692;2023-05-12T05:17:39;99812.84;;;14.53;51.06
61484;BME280;47349;55.640;37.692;2023-05-12T05:20:08;99824.75;;;14.37;50.81
61484;BME280;47349;55.640;37.692;2023-05-12T05:22:40;99834.03;;;14.34;51.86
61484;BME280;47349;55.640;37.692;2023-05-12T05:25:11;99806.72;;;14.44;51.46
61484;BME280;47349;55.640;37.692;2023-05-12T05:27:40;99778.16;;;14.50;49.98
61484;BME280;47349;55.640;37.692;2023-05-12T05:30:08;99801.94;;;14.74;50.07
61484;BME280;47349;55.640;37.692;2023-05-12T05:32:37;99801.34;;;14.79;50.06
61484;BME280;47349;55.640;37.692;2023-05-12T05:35:07;99786.25;;;14.84;49.18
61484;BME280;47349;55.640;37.692;2023-05-12T05:37:38;99801.69;;;15.10;49.17
61484;BME280;47349;55.640;37.692;2023-05-12T05:40:08;99788.41;;;15.09;48.83
61484;BME280;47349;55.640;37.692;2023-05-12T05:42:35;99797.53;;;15.08;48.64
61484;BME280;47349;55.640;37.692;2023-05-12T05:45:03;99797.13;;;15.17;48.58
61484;BME280;47349;55.640;37.692;2023-05-12T05:47:31;99800.44;;;15.13;47.93
61484;BME280;47349;55.640;37.692;2023-05-12T05:50:00;99784.69;;;15.16;48.86
61484;BME280;47349;55.640;37.692;2023-05-12T05:52:29;99796.31;;;15.17;46.88
61484;BME280;47349;55.640;37.692;2023-05-12T05:54:57;99818.00;;;15.50;47.34
61484;BME280;47349;55.640;37.692;2023-05-12T05:57:26;99787.47;;;15.56;47.04
61484;BME280;47349;55.640;37.692;2023-05-12T05:59:56;99791.63;;;15.46;46.61
61484;BME280;47349;55.640;37.692;2023-05-12T06:02:25;99780.19;;;15.50;46.41
61484;BME280;47349;55.640;37.692;2023-05-12T06:04:52;99772.53;;;15.54;46.58
61484;BME280;47349;55.640;37.692;2023-05-12T06:07:19;99795.22;;;15.79;46.09
61484;BME280;47349;55.640;37.692;2023-05-12T06:09:48;99789.41;;;15.82;46.02
61484;BME280;47349;55.640;37.692;2023-05-12T06:12:15;99788.16;;;15.78;46.56
61484;BME280;47349;55.640;37.692;2023-05-12T06:14:43;99803.75;;;16.03;45.72
61484;BME280;47349;55.640;37.692;2023-05-12T06:17:10;99801.25;;;15.94;45.79
61484;BME280;47349;55.640;37.692;2023-05-12T06:19:37;99803.34;;;15.92;45.87
61484;BME280;47349;55.640;37.692;2023-05-12T06:22:05;99771.09;;;15.84;46.40
61484;BME280;47349;55.640;37.692;2023-05-12T06:24:32;99794.59;;;16.04;46.72
61484;BME280;47349;55.640;37.692;2023-05-12T06:27:00;99789.81;;;16.12;46.06
61484;BME280;47349;55.640;37.692;2023-05-12T06:29:27;99785.03;;;16.14;45.69
61484;BME280;47349;55.640;37.692;2023-05-12T06:31:55;99797.91;;;16.19;45.07
61484;BME280;47349;55.640;37.692;2023-05-12T06:34:22;99788.13;;;16.31;46.11
61484;BME280;47349;55.640;37.692;2023-05-12T06:36:50;99789.59;;;16.27;44.68
61484;BME280;47349;55.640;37.692;2023-05-12T06:39:20;99778.97;;;16.32;45.06
61484;BME280;47349;55.640;37.692;2023-05-12T06:41:47;99786.22;;;16.52;44.80
61484;BME280;47349;55.640;37.692;2023-05-12T06:44:19;99773.97;;;16.49;44.81
61484;BME280;47349;55.640;37.692;2023-05-12T06:46:51;99799.91;;;16.70;45.12
61484;BME280;47349;55.640;37.692;2023-05-12T06:49:20;99790.56;;;16.79;44.80
61484;BME280;47349;55.640;37.692;2023-05-12T06:51:48;99789.41;;;17.00;44.90
61484;BME280;47349;55.640;37.692;2023-05-12T06:54:15;99778.56;;;17.07;44.36
61484;BME280;47349;55.640;37.692;2023-05-12T06:56:43;99772.88;;;17.15;44.07
61484;BME280;47349;55.640;37.692;2023-05-12T06:59:10;99787.50;;;17.14;44.09
61484;BME280;47349;55.640;37.692;2023-05-12T07:01:38;99793.22;;;17.31;44.19
61484;BME280;47349;55.640;37.692;2023-05-12T07:04:07;99782.38;;;17.37;43.35
61484;BME280;47349;55.640;37.692;2023-05-12T07:06:34;99791.63;;;17.55;42.94
61484;BME280;47349;55.640;37.692;2023-05-12T07:09:01;99791.91;;;17.46;40.05
61484;BME280;47349;55.640;37.692;2023-05-12T07:11:29;99766.81;;;17.26;40.96
61484;BME280;47349;55.640;37.692;2023-05-12T07:13:57;99779.06;;;17.29;41.29
61484;BME280;47349;55.640;37.692;2023-05-12T07:16:24;99787.13;;;17.42;40.60
61484;BME280;47349;55.640;37.692;2023-05-12T07:18:51;99780.78;;;17.55;40.95
61484;BME280;47349;55.640;37.692;2023-05-12T07:21:19;99788.81;;;17.68;40.04
61484;BME280;47349;55.640;37.692;2023-05-12T07:23:47;99773.84;;;17.65;39.48
61484;BME280;47349;55.640;37.692;2023-05-12T07:26:14;99778.81;;;17.75;38.95
61484;BME280;47349;55.640;37.692;2023-05-12T07:28:43;99764.13;;;17.83;38.95
61484;BME280;47349;55.640;37.692;2023-05-12T07:31:10;99779.00;;;17.98;39.06
61484;BME280;47349;55.640;37.692;2023-05-12T07:33:37;99771.41;;;18.14;38.84
61484;BME280;47349;55.640;37.692;2023-05-12T07:36:05;99769.81;;;18.24;38.50
61484;BME280;47349;55.640;37.692;2023-05-12T07:38:34;99764.28;;;18.13;38.12
61484;BME280;47349;55.640;37.692;2023-05-12T07:41:02;99778.94;;;18.30;36.14
61484;BME280;47349;55.640;37.692;2023-05-12T07:43:29;99764.94;;;18.33;34.63
61484;BME280;47349;55.640;37.692;2023-05-12T07:45:56;99767.81;;;18.38;33.61
61484;BME280;47349;55.640;37.692;2023-05-12T07:48:25;99775.66;;;18.28;33.68
61484;BME280;47349;55.640;37.692;2023-05-12T07:50:52;99775.91;;;18.20;34.56
61484;BME280;47349;55.640;37.692;2023-05-12T07:53:20;99777.03;;;18.12;34.24
61484;BME280;47349;55.640;37.692;2023-05-12T07:55:47;99757.22;;;18.12;33.61
61484;BME280;47349;55.640;37.692;2023-05-12T07:58:15;99763.84;;;18.16;32.70
61484;BME280;47349;55.640;37.692;2023-05-12T08:00:42;99772.78;;;18.23;33.43
61484;BME280;47349;55.640;37.692;2023-05-12T08:03:10;99774.75;;;18.34;33.26
61484;BME280;47349;55.640;37.692;2023-05-12T08:05:39;99758.91;;;18.31;33.57
61484;BME280;47349;55.640;37.692;2023-05-12T08:08:06;99759.88;;;18.55;33.60
61484;BME280;47349;55.640;37.692;2023-05-12T08:10:35;99757.13;;;18.62;32.72
61484;BME280;47349;55.640;37.692;2023-05-12T08:13:02;99745.81;;;18.83;32.35
61484;BME280;47349;55.640;37.692;2023-05-12T08:15:30;99775.44;;;19.03;32.67
61484;BME280;47349;55.640;37.692;2023-05-12T08:17:57;99769.06;;;19.09;32.19
61484;BME280;47349;55.640;37.692;2023-05-12T08:20:24;99750.63;;;18.99;30.70
61484;BME280;47349;55.640;37.692;2023-05-12T08:22:52;99771.59;;;19.11;29.75
61484;BME280;47349;55.640;37.692;2023-05-12T08:25:19;99767.66;;;19.07;29.85
61484;BME280;47349;55.640;37.692;2023-05-12T08:27:47;99748.28;;;19.03;29.76
61484;BME280;47349;55.640;37.692;2023-05-12T08:30:15;99752.03;;;19.20;29.19
61484;BME280;47349;55.640;37.692;2023-05-12T08:32:42;99743.03;;;19.20;30.33
61484;BME280;47349;55.640;37.692;2023-05-12T08:35:10;99744.84;;;19.26;29.74
61484;BME280;47349;55.640;37.692;2023-05-12T08:37:37;99754.63;;;19.27;29.67
61484;BME280;47349;55.640;37.692;2023-05-12T08:40:32;99745.28;;;19.23;29.75
61484;BME280;47349;55.640;37.692;2023-05-12T08:43:07;99749.38;;;19.14;29.72
61484;BME280;47349;55.640;37.692;2023-05-12T08:45:39;99767.72;;;19.18;29.61
61484;BME280;47349;55.640;37.692;2023-05-12T08:48:08;99756.97;;;18.93;30.03
61484;BME280;47349;55.640;37.692;2023-05-12T08:50:37;99757.47;;;19.20;29.76
61484;BME280;47349;55.640;37.692;2023-05-12T08:53:06;99737.69;;;19.13;29.96
61484;BME280;47349;55.640;37.692;2023-05-12T08:55:40;99743.91;;;19.32;30.05
61484;BME280;47349;55.640;37.692;2023-05-12T08:58:24;99734.94;;;19.43;30.59
61484;BME280;47349;55.640;37.692;2023-05-12T09:01:07;99727.13;;;19.35;29.60
61484;BME280;47349;55.640;37.692;2023-05-12T09:03:34;99730.09;;;19.75;30.22
61484;BME280;47349;55.640;37.692;2023-05-12T09:06:04;99714.13;;;19.79;29.53
61484;BME280;47349;55.640;37.692;2023-05-12T09:08:32;99716.59;;;19.69;28.52
61484;BME280;47349;55.640;37.692;2023-05-12T09:11:02;99724.53;;;19.82;28.44
61484;BME280;47349;55.640;37.692;2023-05-12T09:16:18;99729.28;;;19.98;29.33
61484;BME280;47349;55.640;37.692;2023-05-12T09:18:54;99721.69;;;20.00;28.45
61484;BME280;47349;55.640;37.692;2023-05-12T09:21:23;99734.94;;;20.32;28.36
61484;BME280;47349;55.640;37.692;2023-05-12T09:23:58;99732.34;;;20.14;27.99
61484;BME280;47349;55.640;37.692;2023-05-12T09:26:27;99725.94;;;20.20;27.50
61484;BME280;47349;55.640;37.692;2023-05-12T09:29:04;99719.09;;;19.94;27.18
61484;BME280;47349;55.640;37.692;2023-05-12T09:31:38;99707.41;;;19.93;27.86
61484;BME280;47349;55.640;37.692;2023-05-12T09:34:07;99728.78;;;20.01;27.70
61484;BME280;47349;55.640;37.692;2023-05-12T09:36:35;99736.72;;;19.68;27.44
61484;BME280;47349;55.640;37.692;2023-05-12T09:39:07;99721.91;;;19.64;27.53
61484;BME280;47349;55.640;37.692;2023-05-12T09:41:36;99724.03;;;19.62;27.49
61484;BME280;47349;55.640;37.692;2023-05-12T09:44:04;99727.97;;;19.47;27.48
61484;BME280;47349;55.640;37.692;2023-05-12T09:46:31;99697.66;;;19.62;27.32
61484;BME280;47349;55.640;37.692;2023-05-12T09:48:58;99685.25;;;20.01;27.42
61484;BME280;47349;55.640;37.692;2023-05-12T09:51:27;99666.59;;;19.93;26.88
61484;BME280;47349;55.640;37.692;2023-05-12T09:53:56;99687.59;;;20.33;26.81
61484;BME280;47349;55.640;37.692;2023-05-12T09:56:27;99694.56;;;20.52;26.24
61484;BME280;47349;55.640;37.692;2023-05-12T09:58:56;99663.78;;;20.40;26.05
61484;BME280;47349;55.640;37.692;2023-05-12T10:01:25;99675.28;;;20.42;26.99
61484;BME280;47349;55.640;37.692;2023-05-12T10:03:55;99691.38;;;20.56;26.51
61484;BME280;47349;55.640;37.692;2023-05-12T10:06:31;99652.56;;;20.48;26.44
61484;BME280;47349;55.640;37.692;2023-05-12T10:09:17;99699.59;;;20.84;26.23
61484;BME280;47349;55.640;37.692;2023-05-12T10:11:46;99698.41;;;20.80;26.54
61484;BME280;47349;55.640;37.692;2023-05-12T10:14:13;99706.84;;;20.67;26.27
61484;BME280;47349;55.640;37.692;2023-05-12T10:16:44;99690.88;;;20.59;27.08
61484;BME280;47349;55.640;37.692;2023-05-12T10:19:12;99693.50;;;20.53;26.25
61484;BME280;47349;55.640;37.692;2023-05-12T10:21:42;99691.16;;;20.45;26.26
61484;BME280;47349;55.640;37.692;2023-05-12T10:24:14;99674.47;;;20.42;26.99
61484;BME280;47349;55.640;37.692;2023-05-12T10:26:43;99697.41;;;20.34;27.24
61484;BME280;47349;55.640;37.692;2023-05-12T10:29:11;99669.72;;;20.49;27.73
61484;BME280;47349;55.640;37.692;2023-05-12T10:31:39;99672.44;;;20.37;27.18
61484;BME280;47349;55.640;37.692;2023-05-12T10:34:15;99689.31;;;20.74;27.28
61484;BME280;47349;55.640;37.692;2023-05-12T10:36:45;99692.41;;;20.66;27.26
61484;BME280;47349;55.640;37.692;2023-05-12T10:39:15;99654.81;;;20.80;27.46
61484;BME280;47349;55.640;37.692;2023-05-12T10:41:42;99655.03;;;20.90;26.50
61484;BME280;47349;55.640;37.692;2023-05-12T10:44:10;99676.09;;;21.12;26.65
61484;BME280;47349;55.640;37.692;2023-05-12T10:46:38;99688.91;;;21.11;26.09
61484;BME280;47349;55.640;37.692;2023-05-12T10:51:34;99693.44;;;21.34;26.87
61484;BME280;47349;55.640;37.692;2023-05-12T10:54:23;99680.47;;;21.13;26.75
61484;BME280;47349;55.640;37.692;2023-05-12T10:56:51;99675.03;;;21.13;26.90
61484;BME280;47349;55.640;37.692;2023-05-12T11:02:04;99699.56;;;21.41;27.02
61484;BME280;47349;55.640;37.692;2023-05-12T11:04:44;99686.47;;;20.98;26.51
61484;BME280;47349;55.640;37.692;2023-05-12T11:07:14;99677.03;;;21.17;26.89
61484;BME280;47349;55.640;37.692;2023-05-12T11:09:45;99675.03;;;20.56;27.00
61484;BME280;47349;55.640;37.692;2023-05-12T11:12:32;99693.19;;;20.26;26.85
61484;BME280;47349;55.640;37.692;2023-05-12T11:15:03;99685.97;;;20.09;27.72
61484;BME280;47349;55.640;37.692;2023-05-12T11:17:32;99679.94;;;19.95;27.63
61484;BME280;47349;55.640;37.692;2023-05-12T11:20:00;99689.78;;;20.08;27.59
61484;BME280;47349;55.640;37.692;2023-05-12T11:22:29;99718.41;;;19.98;28.06
61484;BME280;47349;55.640;37.692;2023-05-12T11:24:57;99686.56;;;19.75;27.79
61484;BME280;47349;55.640;37.692;2023-05-12T11:27:24;99706.78;;;19.91;27.82
61484;BME280;47349;55.640;37.692;2023-05-12T11:30:00;99676.16;;;19.96;28.25
61484;BME280;47349;55.640;37.692;2023-05-12T11:32:30;99677.59;;;19.98;28.55
61484;BME280;47349;55.640;37.692;2023-05-12T11:35:09;99691.66;;;20.19;28.05
61484;BME280;47349;55.640;37.692;2023-05-12T11:37:40;99702.50;;;20.66;28.15
61484;BME280;47349;55.640;37.692;2023-05-12T11:40:18;99672.66;;;20.59;27.60
61484;BME280;47349;55.640;37.692;2023-05-12T11:42:47;99692.88;;;21.03;27.71
61484;BME280;47349;55.640;37.692;2023-05-12T11:45:19;99699.88;;;21.28;27.27
61484;BME280;47349;55.640;37.692;2023-05-12T11:47:51;99663.06;;;21.42;26.86
61484;BME280;47349;55.640;37.692;2023-05-12T11:50:20;99671.38;;;21.86;26.58
61484;BME280;47349;55.640;37.692;2023-05-12T11:52:49;99672.81;;;22.27;25.78
61484;BME280;47349;55.640;37.692;2023-05-12T11:55:22;99671.28;;;22.15;25.51
61484;BME280;47349;55.640;37.692;2023-05-12T11:58:01;99664.00;;;22.20;25.58
61484;BME280;47349;55.640;37.692;2023-05-12T12:00:33;99654.72;;;22.21;25.18
61484;BME280;47349;55.640;37.692;2023-05-12T12:03:06;99648.56;;;22.31;25.42
61484;BME280;47349;55.640;37.692;2023-05-12T12:05:34;99652.31;;;22.25;24.46
61484;BME280;47349;55.640;37.692;2023-05-12T12:08:12;99661.09;;;22.49;24.91
61484;BME280;47349;55.640;37.692;2023-05-12T12:10:45;99653.50;;;22.78;24.25
61484;BME280;47349;55.640;37.692;2023-05-12T12:13:21;99652.53;;;22.67;24.14
61484;BME280;47349;55.640;37.692;2023-05-12T12:15:50;99655.06;;;22.96;24.55
61484;BME280;47349;55.640;37.692;2023-05-12T12:18:18;99649.22;;;23.41;23.96
61484;BME280;47349;55.640;37.692;2023-05-12T12:20:45;99660.25;;;23.51;23.88
61484;BME280;47349;55.640;37.692;2023-05-12T12:23:13;99657.00;;;23.92;23.61
61484;BME280;47349;55.640;37.692;2023-05-12T12:25:40;99664.63;;;23.84;22.89
61484;BME280;47349;55.640;37.692;2023-05-12T12:28:07;99659.91;;;23.16;23.79
61484;BME280;47349;55.640;37.692;2023-05-12T12:30:34;99652.41;;;22.57;24.40
61484;BME280;47349;55.640;37.692;2023-05-12T12:33:02;99645.31;;;22.12;24.22
61484;BME280;47349;55.640;37.692;2023-05-12T12:35:30;99640.19;;;22.16;24.55
61484;BME280;47349;55.640;37.692;2023-05-12T12:37:57;99646.91;;;22.30;24.38
61484;BME280;47349;55.640;37.692;2023-05-12T12:40:25;99651.03;;;22.54;24.15
61484;BME280;47349;55.640;37.692;2023-05-12T12:42:53;99625.75;;;22.42;24.18
61484;BME280;47349;55.640;37.692;2023-05-12T12:45:20;99634.81;;;22.70;24.41
61484;BME280;47349;55.640;37.692;2023-05-12T12:47:50;99634.25;;;22.90;24.44
61484;BME280;47349;55.640;37.692;2023-05-12T12:50:18;99634.69;;;23.08;24.38
61484;BME280;47349;55.640;37.692;2023-05-12T12:52:45;99637.09;;;22.78;23.72
61484;BME280;47349;55.640;37.692;2023-05-12T12:55:14;99625.63;;;22.81;23.94
61484;BME280;47349;55.640;37.692;2023-05-12T12:57:41;99627.06;;;23.11;24.09
61484;BME280;47349;55.640;37.692;2023-05-12T13:00:09;99639.34;;;22.59;24.54
61484;BME280;47349;55.640;37.692;2023-05-12T13:02:37;99614.00;;;22.42;24.57
61484;BME280;47349;55.640;37.692;2023-05-12T13:05:05;99629.19;;;22.54;24.50
61484;BME280;47349;55.640;37.692;2023-05-12T13:07:32;99639.56;;;22.79;24.60
61484;BME280;47349;55.640;37.692;2023-05-12T13:10:00;99630.34;;;22.58;25.24
61484;BME280;47349;55.640;37.692;2023-05-12T13:12:29;99620.19;;;22.54;24.65
61484;BME280;47349;55.640;37.692;2023-05-12T13:14:57;99626.22;;;22.34;24.10
61484;BME280;47349;55.640;37.692;2023-05-12T13:17:26;99625.63;;;22.32;24.25
61484;BME280;47349;55.640;37.692;2023-05-12T13:19:54;99623.56;;;22.39;24.24
61484;BME280;47349;55.640;37.692;2023-05-12T13:22:21;99621.72;;;22.06;24.27
61484;BME280;47349;55.640;37.692;2023-05-12T13:24:49;99626.84;;;22.02;24.66
61484;BME280;47349;55.640;37.692;2023-05-12T13:27:17;99591.13;;;22.04;24.74
61484;BME280;47349;55.640;37.692;2023-05-12T13:29:44;99601.47;;;22.02;25.12
61484;BME280;47349;55.640;37.692;2023-05-12T13:32:16;99607.94;;;21.96;24.85
61484;BME280;47349;55.640;37.692;2023-05-12T13:34:43;99597.09;;;22.01;25.87
61484;BME280;47349;55.640;37.692;2023-05-12T13:37:10;99603.44;;;22.06;25.06
61484;BME280;47349;55.640;37.692;2023-05-12T13:39:38;99611.72;;;22.12;25.29
61484;BME280;47349;55.640;37.692;2023-05-12T13:42:05;99597.78;;;21.91;26.00
61484;BME280;47349;55.640;37.692;2023-05-12T13:44:32;99613.91;;;21.93;25.72
61484;BME280;47349;55.640;37.692;2023-05-12T13:47:00;99617.03;;;22.01;25.51
61484;BME280;47349;55.640;37.692;2023-05-12T13:49:27;99601.97;;;21.99;25.31
61484;BME280;47349;55.640;37.692;2023-05-12T13:51:55;99611.56;;;22.67;24.32
61484;BME280;47349;55.640;37.692;2023-05-12T13:54:22;99618.69;;;23.22;24.12
61484;BME280;47349;55.640;37.692;2023-05-12T13:56:50;99614.97;;;23.33;23.71
61484;BME280;47349;55.640;37.692;2023-05-12T13:59:18;99598.41;;;23.50;23.67
61484;BME280;47349;55.640;37.692;2023-05-12T14:01:45;99586.72;;;23.60;23.42
61484;BME280;47349;55.640;37.692;2023-05-12T14:04:13;99593.94;;;24.24;23.29
61484;BME280;47349;55.640;37.692;2023-05-12T14:06:40;99589.06;;;24.41;23.24
61484;BME280;47349;55.640;37.692;2023-05-12T14:09:07;99591.59;;;24.58;22.90
61484;BME280;47349;55.640;37.692;2023-05-12T14:11:35;99582.06;;;24.86;22.95
61484;BME280;47349;55.640;37.692;2023-05-12T14:14:02;99570.81;;;24.82;22.70
61484;BME280;47349;55.640;37.692;2023-05-12T14:16:32;99581.25;;;24.85;23.10
61484;BME280;47349;55.640;37.692;2023-05-12T14:18:59;99582.31;;;24.79;22.78
61484;BME280;47349;55.640;37.692;2023-05-12T14:21:27;99573.84;;;24.91;22.77
61484;BME280;47349;55.640;37.692;2023-05-12T14:23:55;99589.31;;;24.34;23.33
61484;BME280;47349;55.640;37.692;2023-05-12T14:26:22;99580.69;;;24.05;24.13
61484;BME280;47349;55.640;37.692;2023-05-12T14:28:51;99589.31;;;23.82;24.04
61484;BME280;47349;55.640;37.692;2023-05-12T14:31:18;99597.69;;;23.28;25.11
61484;BME280;47349;55.640;37.692;2023-05-12T14:33:46;99563.84;;;22.75;25.14
61484;BME280;47349;55.640;37.692;2023-05-12T14:36:13;99587.56;;;22.69;25.07
61484;BME280;47349;55.640;37.692;2023-05-12T14:38:41;99595.84;;;22.79;24.40
61484;BME280;47349;55.640;37.692;2023-05-12T14:41:08;99573.59;;;22.93;24.38
61484;BME280;47349;55.640;37.692;2023-05-12T14:43:35;99597.53;;;22.86;24.08
61484;BME280;47349;55.640;37.692;2023-05-12T14:46:03;99590.34;;;22.74;24.48
61484;BME280;47349;55.640;37.692;2023-05-12T14:48:30;99586.78;;;22.74;24.30
61484;BME280;47349;55.640;37.692;2023-05-12T14:50:57;99560.41;;;22.63;24.22
61484;BME280;47349;55.640;37.692;2023-05-12T14:53:26;99580.41;;;22.41;24.95
61484;BME280;47349;55.640;37.692;2023-05-12T14:56:07;99589.19;;;22.21;25.31
61484;BME280;47349;55.640;37.692;2023-05-12T14:58:34;99587.97;;;22.12;24.80
61484;BME280;47349;55.640;37.692;2023-05-12T15:01:04;99581.03;;;22.04;25.75
61484;BME280;47349;55.640;37.692;2023-05-12T15:03:35;99592.81;;;21.88;26.32
61484;BME280;47349;55.640;37.692;2023-05-12T15:06:02;99595.88;;;21.92;26.21
61484;BME280;47349;55.640;37.692;2023-05-12T15:08:34;99569.03;;;22.49;25.80
61484;BME280;47349;55.640;37.692;2023-05-12T15:11:16;99547.25;;;22.87;25.01
61484;BME280;47349;55.640;37.692;2023-05-12T15:13:49;99576.94;;;22.73;25.12
61484;BME280;47349;55.640;37.692;2023-05-12T15:16:31;99609.19;;;22.98;24.74
61484;BME280;47349;55.640;37.692;2023-05-12T15:19:12;99585.69;;;23.34;24.80
61484;BME280;47349;55.640;37.692;2023-05-12T15:21:51;99564.31;;;23.26;24.69
61484;BME280;47349;55.640;37.692;2023-05-12T15:24:21;99566.88;;;22.78;25.31
61484;BME280;47349;55.640;37.692;2023-05-12T15:26:48;99587.28;;;22.71;26.05
61484;BME280;47349;55.640;37.692;2023-05-12T15:29:16;99600.69;;;22.45;25.79
61484;BME280;47349;55.640;37.692;2023-05-12T15:31:45;99586.16;;;22.40;26.13
61484;BME280;47349;55.640;37.692;2023-05-12T15:34:17;99567.97;;;22.50;25.86
61484;BME280;47349;55.640;37.692;2023-05-12T15:36:46;99570.69;;;22.28;25.72
61484;BME280;47349;55.640;37.692;2023-05-12T15:39:23;99570.13;;;22.26;25.76